Portada
METAR-TAF:

METAR-TAF

Aeropuertos :

Malé, Hulhule Island, Maldivas

Aeropuerto Internacional de Malé

latitud: 04-12N, longitud: 073-32E, altitud: 2 m

Observación

El informe se hizo hace 26 minutos, a las 04:00 UTC
Viento 8 kt del oeste-noroeste
Temperatura 30°C
Humedad 75%
Presión 1011 hPa
Visibilidad 10 km o más
Escasas nubes a una altura de 1800 ft

METAR: VRMM 250400Z 29008KT 9999 FEW018 BKNT280 30/25 Q1011 NOSIG

Hora: 09:26 (04:26 UTC)

Pronóstico

El informe se hizo hace 5 horas y 26 minutos, a las 23:00 UTC
Pronóstico válido del 25 a las 00 UTC al 26 a las 06 UTC
Viento 10 kt del oeste
Visibilidad 10 km o más
Escasas nubes a una altura de 1800 ft
Temporalmente
del 25 a las 00 UTC al 25 a las 06 UTC
Escasas nubes a una altura de 1800 ft, Cumulonimbus.

TAF: VRMM 242300Z 2500/2606 28010KT 9999 FEW018 TEMPO 2500/2506 FEW018CB

Observaciones y pronósticos meteorológicos de más de 4000 aeropuertos (mensajes METAR y TAF).

Los puntos amarillos y rojos representan las estaciones disponibles.

Ponga el ratón en el punto deseado para ver el nombre de la estación.

Haga clic para ver las observaciones y los pronósticos meteorológicos.

Para cambiar el mapa : haga clic en los botones verdes con una cruz de color negro para hacer un zoom, en el botón verde con un guión para alejar o en las flechas verdes para mapas adyacentes.


METAR-TAF: